Terminal Aerodrome Forecast
Issued by NWS

Home | Current Version | Previous Version | Text Only | Print | Product List | Glossary On
Versions: 1 2 3 4 5 6 7 8 9 10 11 12 13 14
000
FTUS45 KFGZ 020542
TAFPRC
TAF
KPRC 020542Z 0206/0306 19007KT P6SM FEW110
     FM021900 25006KT P6SM SCT060 OVC110
      TEMPO 0220/0224 VRB15G25KT 4SM -TSRA OVC050CB
     FM030200 20006KT P6SM SKC=

USA.gov is the U.S. government's official web portal to all federal, state and local government web resources and services.